KLM877 EHAM-HECA
Flight info
| Callsign | KLM877 |
|---|---|
| Flight time | N/A |
| Altitude | 37000 |
| Route | RENDI2S/24 EDUPO Z739 MISGO DCT DOJOH DCT DODEN DCT NEGIX DCT DINKU M867 XERUM DCT BAVAX DCT RADIZ DCT NEMEK DCT GACMO DCT MAVAR DCT BITLA DCT KPC UN139 KUMBI L612 BLT A16 CVO |
| Aircraft | B77W/H-SDE1E2E3FGHIJ2J3J4J5M1RWXY/LB1D1 |
Departure
| Time | 2026-04-18 10:59 |
|---|---|
| Airport | Amsterdam Airport Schiphol (EHAM) |
Arrival
| Time | N/A |
|---|---|
| Airport | Cairo International Airport (HECA) |
| Time | Latitude | Longitude | Altitude | Speed | Heading |
|---|---|---|---|---|---|
| 2026-04-18 10:32 | 52.31210 | 4.76551 | 4 ft | 0 kts | 124° |
| 2026-04-18 10:48 | 52.31212 | 4.76546 | 4 ft | 3 kts | 123° |
| 2026-04-18 10:48 | 52.31222 | 4.76522 | 5 ft | 4 kts | 120° |
| 2026-04-18 10:48 | 52.31236 | 4.76484 | 6 ft | 4 kts | 129° |
| 2026-04-18 10:48 | 52.31253 | 4.76457 | 6 ft | 4 kts | 156° |
| 2026-04-18 10:49 | 52.31274 | 4.76458 | 6 ft | 4 kts | 215° |
| 2026-04-18 10:49 | 52.31294 | 4.76479 | 6 ft | 4 kts | 212° |
| 2026-04-18 10:49 | 52.31317 | 4.76503 | 5 ft | 4 kts | 214° |
| 2026-04-18 10:49 | 52.31339 | 4.76529 | 7 ft | 4 kts | 213° |
| 2026-04-18 10:50 | 52.31362 | 4.76552 | 6 ft | 4 kts | 209° |
| 2026-04-18 10:50 | 52.31386 | 4.76566 | 4 ft | 4 kts | 179° |
| 2026-04-18 10:50 | 52.31380 | 4.76564 | 5 ft | 4 kts | 193° |
| 2026-04-18 10:50 | 52.31370 | 4.76556 | 6 ft | 0 kts | 207° |
| 2026-04-18 10:53 | 52.31333 | 4.76506 | 4 ft | 7 kts | 249° |
| 2026-04-18 10:54 | 52.31349 | 4.76444 | 4 ft | 7 kts | 313° |
| 2026-04-18 10:54 | 52.31420 | 4.76395 | 4 ft | 16 kts | 340° |
| 2026-04-18 10:54 | 52.31481 | 4.76350 | 4 ft | 7 kts | 324° |
| 2026-04-18 10:54 | 52.31511 | 4.76336 | 4 ft | 7 kts | 22° |
| 2026-04-18 10:55 | 52.31548 | 4.76526 | 4 ft | 23 kts | 87° |
| 2026-04-18 10:55 | 52.31558 | 4.76786 | 4 ft | 21 kts | 86° |
| 2026-04-18 10:55 | 52.31566 | 4.77025 | 4 ft | 21 kts | 86° |
| 2026-04-18 10:55 | 52.31573 | 4.77264 | 4 ft | 21 kts | 86° |
| 2026-04-18 10:56 | 52.31548 | 4.77494 | 4 ft | 21 kts | 120° |
| 2026-04-18 10:56 | 52.31432 | 4.77637 | 4 ft | 25 kts | 162° |
| 2026-04-18 10:56 | 52.31191 | 4.77638 | 4 ft | 38 kts | 183° |
| 2026-04-18 10:56 | 52.30938 | 4.77616 | 4 ft | 35 kts | 181° |
| 2026-04-18 10:57 | 52.30722 | 4.77598 | 4 ft | 28 kts | 185° |
| 2026-04-18 10:57 | 52.30590 | 4.77556 | 4 ft | 15 kts | 182° |
| 2026-04-18 10:57 | 52.30519 | 4.77588 | 4 ft | 7 kts | 153° |
| 2026-04-18 10:57 | 52.30463 | 4.77631 | 4 ft | 16 kts | 158° |
| 2026-04-18 10:58 | 52.30383 | 4.77551 | 3 ft | 0 kts | 236° |
| 2026-04-18 10:58 | 52.30380 | 4.77546 | 3 ft | 1 kts | 236° |
| 2026-04-18 10:58 | 52.30360 | 4.77496 | 3 ft | 17 kts | 237° |
| 2026-04-18 10:58 | 52.30111 | 4.76848 | 3 ft | 126 kts | 238° |
| 2026-04-18 10:59 | 52.29450 | 4.75134 | 293 ft | 213 kts | 239° |
| 2026-04-18 10:59 | 52.28644 | 4.73016 | 1993 ft | 221 kts | 239° |
| 2026-04-18 10:59 | 52.27807 | 4.70871 | 3987 ft | 226 kts | 238° |
| 2026-04-18 10:59 | 52.26985 | 4.68847 | 5901 ft | 199 kts | 233° |
| 2026-04-18 11:00 | 52.25889 | 4.67458 | 6706 ft | 213 kts | 204° |
| 2026-04-18 11:00 | 52.24325 | 4.67416 | 6709 ft | 242 kts | 165° |
| 2026-04-18 11:00 | 52.22960 | 4.69138 | 6703 ft | 266 kts | 127° |
| 2026-04-18 11:00 | 52.22132 | 4.71960 | 6715 ft | 284 kts | 117° |
| 2026-04-18 11:01 | 52.21287 | 4.74915 | 7370 ft | 290 kts | 120° |
| 2026-04-18 11:01 | 52.20371 | 4.77856 | 8469 ft | 291 kts | 122° |
| 2026-04-18 11:01 | 52.19378 | 4.80739 | 9553 ft | 293 kts | 124° |
| 2026-04-18 11:02 | 52.17501 | 4.86778 | 11026 ft | 320 kts | 103° |
| 2026-04-18 11:02 | 52.17589 | 4.90568 | 11260 ft | 352 kts | 76° |
| 2026-04-18 11:02 | 52.18370 | 4.94519 | 11494 ft | 381 kts | 71° |
| 2026-04-18 11:02 | 52.19254 | 4.98715 | 12074 ft | 399 kts | 72° |
| 2026-04-18 11:03 | 52.20126 | 5.03000 | 12974 ft | 408 kts | 72° |
| 2026-04-18 11:03 | 52.20997 | 5.07449 | 13989 ft | 414 kts | 73° |
| 2026-04-18 11:03 | 52.21854 | 5.11964 | 14928 ft | 419 kts | 74° |
| 2026-04-18 11:03 | 52.22708 | 5.16534 | 15879 ft | 424 kts | 74° |
| 2026-04-18 11:04 | 52.23478 | 5.21176 | 16671 ft | 425 kts | 83° |
| 2026-04-18 11:04 | 52.23391 | 5.25989 | 17374 ft | 428 kts | 105° |
| 2026-04-18 11:04 | 52.22374 | 5.30532 | 18279 ft | 426 kts | 122° |
| 2026-04-18 11:04 | 52.20738 | 5.34528 | 19057 ft | 425 kts | 130° |
| 2026-04-18 11:05 | 52.18973 | 5.38447 | 19769 ft | 432 kts | 130° |
| 2026-04-18 11:05 | 52.17180 | 5.42428 | 20524 ft | 437 kts | 131° |
| 2026-04-18 11:05 | 52.15391 | 5.46451 | 21330 ft | 441 kts | 130° |
| 2026-04-18 11:05 | 52.13597 | 5.50541 | 22068 ft | 447 kts | 130° |
| 2026-04-18 11:06 | 52.11782 | 5.54695 | 22770 ft | 453 kts | 130° |
| 2026-04-18 11:06 | 52.09942 | 5.58908 | 23498 ft | 458 kts | 131° |
| 2026-04-18 11:06 | 52.08084 | 5.63146 | 24143 ft | 463 kts | 131° |
| 2026-04-18 11:06 | 52.06206 | 5.67416 | 24747 ft | 467 kts | 131° |
| 2026-04-18 11:07 | 52.04205 | 5.71572 | 25344 ft | 467 kts | 136° |
| 2026-04-18 11:07 | 52.02031 | 5.75520 | 25920 ft | 470 kts | 139° |
| 2026-04-18 11:07 | 51.99824 | 5.79468 | 26486 ft | 474 kts | 138° |
| 2026-04-18 11:07 | 51.97629 | 5.83500 | 27049 ft | 479 kts | 137° |
| 2026-04-18 11:08 | 51.95463 | 5.87543 | 27556 ft | 484 kts | 137° |
| 2026-04-18 11:08 | 51.93229 | 5.91714 | 28061 ft | 488 kts | 137° |
| 2026-04-18 11:08 | 51.90984 | 5.95900 | 28536 ft | 492 kts | 137° |
| 2026-04-18 11:08 | 51.88760 | 6.00038 | 28984 ft | 496 kts | 137° |
| 2026-04-18 11:09 | 51.86482 | 6.04262 | 29410 ft | 500 kts | 137° |
| 2026-04-18 11:09 | 51.84184 | 6.08504 | 29814 ft | 504 kts | 137° |
| 2026-04-18 11:09 | 51.81853 | 6.12770 | 30227 ft | 506 kts | 137° |
| 2026-04-18 11:09 | 51.79518 | 6.17035 | 30710 ft | 505 kts | 137° |
| 2026-04-18 11:10 | 51.77207 | 6.21256 | 31297 ft | 502 kts | 137° |
| 2026-04-18 11:10 | 51.74904 | 6.25462 | 31912 ft | 498 kts | 137° |
| 2026-04-18 11:10 | 51.72617 | 6.29638 | 32479 ft | 496 kts | 137° |
| 2026-04-18 11:10 | 51.70336 | 6.33796 | 32995 ft | 493 kts | 137° |
| 2026-04-18 11:11 | 51.68072 | 6.37921 | 33600 ft | 489 kts | 137° |
| 2026-04-18 11:11 | 51.65822 | 6.42014 | 34138 ft | 487 kts | 137° |
| 2026-04-18 11:11 | 51.63586 | 6.46070 | 34526 ft | 486 kts | 137° |
| 2026-04-18 11:11 | 51.61337 | 6.50140 | 34802 ft | 488 kts | 137° |
| 2026-04-18 11:12 | 51.59074 | 6.54226 | 35058 ft | 490 kts | 137° |
| 2026-04-18 11:12 | 51.56786 | 6.58354 | 35135 ft | 495 kts | 137° |
| 2026-04-18 11:12 | 51.52214 | 6.66599 | 35173 ft | 491 kts | 137° |
| 2026-04-18 11:13 | 51.47685 | 6.74744 | 35176 ft | 487 kts | 137° |
| 2026-04-18 11:13 | 51.43166 | 6.82837 | 35187 ft | 486 kts | 137° |
| 2026-04-18 11:14 | 51.38559 | 6.90737 | 35187 ft | 483 kts | 141° |
| 2026-04-18 11:14 | 51.33752 | 6.98167 | 35178 ft | 484 kts | 142° |
| 2026-04-18 11:15 | 51.28892 | 7.05617 | 35195 ft | 485 kts | 141° |
| 2026-04-18 11:15 | 51.24019 | 7.13114 | 35189 ft | 487 kts | 141° |
| 2026-04-18 11:16 | 51.19140 | 7.20625 | 35187 ft | 488 kts | 141° |
| 2026-04-18 11:16 | 51.14238 | 7.28150 | 35190 ft | 489 kts | 141° |
| 2026-04-18 11:17 | 51.09331 | 7.35657 | 35175 ft | 490 kts | 141° |
| 2026-04-18 11:17 | 51.04407 | 7.43168 | 35186 ft | 490 kts | 141° |
| 2026-04-18 11:18 | 50.99473 | 7.50668 | 35186 ft | 491 kts | 141° |
| 2026-04-18 11:18 | 50.94577 | 7.58089 | 35162 ft | 491 kts | 141° |
| 2026-04-18 11:19 | 50.89633 | 7.65560 | 35196 ft | 490 kts | 141° |
| 2026-04-18 11:19 | 50.84691 | 7.73007 | 35175 ft | 490 kts | 141° |
| 2026-04-18 11:20 | 50.79733 | 7.80420 | 35176 ft | 490 kts | 141° |
| 2026-04-18 11:20 | 50.74753 | 7.87804 | 35182 ft | 490 kts | 141° |
| 2026-04-18 11:21 | 50.69777 | 7.95170 | 35182 ft | 490 kts | 141° |
| 2026-04-18 11:21 | 50.64801 | 8.02522 | 35182 ft | 490 kts | 141° |
| 2026-04-18 11:22 | 50.59876 | 8.09947 | 35172 ft | 493 kts | 137° |
| 2026-04-18 11:22 | 50.55523 | 8.18335 | 35170 ft | 496 kts | 131° |
| 2026-04-18 11:23 | 50.51261 | 8.26867 | 35173 ft | 496 kts | 132° |
| 2026-04-18 11:23 | 50.46956 | 8.35346 | 35175 ft | 497 kts | 132° |
| 2026-04-18 11:24 | 50.42656 | 8.43740 | 35162 ft | 497 kts | 132° |
| 2026-04-18 11:24 | 50.38310 | 8.52204 | 35170 ft | 497 kts | 132° |
| 2026-04-18 11:25 | 50.33694 | 8.60223 | 35167 ft | 495 kts | 136° |
| 2026-04-18 11:25 | 50.28961 | 8.68060 | 35158 ft | 496 kts | 136° |
| 2026-04-18 11:26 | 50.24229 | 8.75903 | 35168 ft | 496 kts | 136° |
| 2026-04-18 11:26 | 50.19501 | 8.83758 | 35166 ft | 496 kts | 136° |
| 2026-04-18 11:27 | 50.14769 | 8.91610 | 35162 ft | 496 kts | 136° |
| 2026-04-18 11:27 | 50.10035 | 8.99443 | 35167 ft | 496 kts | 136° |
| 2026-04-18 11:28 | 50.05296 | 9.07257 | 35159 ft | 496 kts | 136° |
| 2026-04-18 11:28 | 50.00551 | 9.15055 | 35165 ft | 496 kts | 136° |
| 2026-04-18 11:29 | 49.95802 | 9.22835 | 35175 ft | 496 kts | 136° |
| 2026-04-18 11:29 | 49.91053 | 9.30594 | 35165 ft | 495 kts | 136° |
| 2026-04-18 11:30 | 49.86301 | 9.38332 | 35170 ft | 495 kts | 136° |
| 2026-04-18 11:30 | 49.81576 | 9.46003 | 35163 ft | 495 kts | 136° |
| 2026-04-18 11:31 | 49.76810 | 9.53717 | 35164 ft | 495 kts | 136° |
| 2026-04-18 11:31 | 49.72045 | 9.61405 | 35166 ft | 495 kts | 136° |
| 2026-04-18 11:32 | 49.67280 | 9.69073 | 35165 ft | 495 kts | 136° |
| 2026-04-18 11:32 | 49.62496 | 9.76746 | 35164 ft | 496 kts | 136° |
| 2026-04-18 11:33 | 49.57705 | 9.84408 | 35164 ft | 496 kts | 136° |
| 2026-04-18 11:33 | 49.52912 | 9.92049 | 35146 ft | 496 kts | 136° |
| 2026-04-18 11:34 | 49.48115 | 9.99675 | 35158 ft | 496 kts | 136° |
| 2026-04-18 11:34 | 49.43305 | 10.07298 | 35157 ft | 496 kts | 136° |
| 2026-04-18 11:35 | 49.38494 | 10.14901 | 35157 ft | 496 kts | 136° |
| 2026-04-18 11:35 | 49.33676 | 10.22493 | 35166 ft | 497 kts | 136° |
| 2026-04-18 11:36 | 49.28885 | 10.30023 | 35168 ft | 497 kts | 136° |
| 2026-04-18 11:36 | 49.23926 | 10.37387 | 35179 ft | 495 kts | 142° |
| 2026-04-18 11:37 | 49.18280 | 10.43323 | 35197 ft | 492 kts | 152° |
| 2026-04-18 11:37 | 49.13329 | 10.47727 | 35201 ft | 492 kts | 152° |
| 2026-04-18 11:38 | 49.07450 | 10.53003 | 35195 ft | 493 kts | 152° |
| 2026-04-18 11:38 | 49.01550 | 10.58351 | 35182 ft | 493 kts | 152° |
| 2026-04-18 11:39 | 48.95648 | 10.63698 | 35199 ft | 494 kts | 152° |
| 2026-04-18 11:39 | 48.89741 | 10.69031 | 35193 ft | 495 kts | 152° |
| 2026-04-18 11:40 | 48.83835 | 10.74431 | 35192 ft | 496 kts | 148° |
| 2026-04-18 11:40 | 48.78479 | 10.81077 | 35177 ft | 500 kts | 137° |
| 2026-04-18 11:41 | 48.73804 | 10.88888 | 35179 ft | 500 kts | 133° |
| 2026-04-18 11:41 | 48.69184 | 10.96754 | 35187 ft | 500 kts | 134° |
| 2026-04-18 11:42 | 48.64528 | 11.04579 | 35184 ft | 500 kts | 134° |
| 2026-04-18 11:42 | 48.59851 | 11.12371 | 35183 ft | 500 kts | 134° |
| 2026-04-18 11:43 | 48.55155 | 11.20164 | 35181 ft | 500 kts | 134° |
| 2026-04-18 11:43 | 48.50467 | 11.27926 | 35165 ft | 500 kts | 134° |
| 2026-04-18 11:44 | 48.45807 | 11.35623 | 35176 ft | 500 kts | 134° |
| 2026-04-18 11:44 | 48.41109 | 11.43358 | 35179 ft | 500 kts | 134° |
| 2026-04-18 11:45 | 48.36405 | 11.51081 | 35180 ft | 500 kts | 134° |
| 2026-04-18 11:45 | 48.31696 | 11.58791 | 35188 ft | 500 kts | 134° |
| 2026-04-18 11:46 | 48.26986 | 11.66478 | 35188 ft | 501 kts | 135° |
| 2026-04-18 11:46 | 48.21969 | 11.73691 | 35192 ft | 499 kts | 140° |
| 2026-04-18 11:47 | 48.16814 | 11.80682 | 35181 ft | 500 kts | 140° |
| 2026-04-18 11:47 | 48.11662 | 11.87686 | 35177 ft | 500 kts | 140° |
| 2026-04-18 11:48 | 48.06515 | 11.94705 | 35176 ft | 501 kts | 140° |
| 2026-04-18 11:48 | 48.01366 | 12.01722 | 35160 ft | 501 kts | 139° |
| 2026-04-18 11:49 | 47.96205 | 12.08733 | 35170 ft | 502 kts | 139° |
| 2026-04-18 11:49 | 47.91029 | 12.15744 | 35172 ft | 502 kts | 140° |
| 2026-04-18 11:50 | 47.85848 | 12.22740 | 35171 ft | 503 kts | 140° |
| 2026-04-18 11:50 | 47.80659 | 12.29728 | 35170 ft | 503 kts | 140° |
| 2026-04-18 11:51 | 47.75458 | 12.36711 | 35184 ft | 503 kts | 140° |
| 2026-04-18 11:51 | 47.70292 | 12.43629 | 35185 ft | 503 kts | 140° |
| 2026-04-18 11:52 | 47.65091 | 12.50579 | 35186 ft | 503 kts | 140° |
| 2026-04-18 11:52 | 47.59912 | 12.57566 | 35163 ft | 504 kts | 138° |
| 2026-04-18 11:53 | 47.54848 | 12.64752 | 35188 ft | 503 kts | 137° |
| 2026-04-18 11:53 | 47.49817 | 12.71943 | 35195 ft | 502 kts | 137° |
| 2026-04-18 11:54 | 47.44774 | 12.79090 | 35173 ft | 502 kts | 137° |
| 2026-04-18 11:54 | 47.39713 | 12.86202 | 35179 ft | 503 kts | 137° |
| 2026-04-18 11:55 | 47.34632 | 12.93314 | 35182 ft | 504 kts | 137° |
| 2026-04-18 11:55 | 47.29571 | 13.00380 | 35162 ft | 505 kts | 137° |
| 2026-04-18 11:56 | 47.24467 | 13.07491 | 35165 ft | 505 kts | 137° |
| 2026-04-18 11:56 | 47.19348 | 13.14601 | 35188 ft | 506 kts | 137° |
| 2026-04-18 11:57 | 47.14224 | 13.21700 | 35185 ft | 506 kts | 137° |
| 2026-04-18 11:57 | 47.09095 | 13.28787 | 35188 ft | 507 kts | 137° |
| 2026-04-18 11:58 | 47.03958 | 13.35863 | 35164 ft | 507 kts | 137° |
| 2026-04-18 11:58 | 46.98820 | 13.42921 | 35175 ft | 506 kts | 137° |
| 2026-04-18 11:59 | 46.93685 | 13.49956 | 35176 ft | 505 kts | 137° |
| 2026-04-18 11:59 | 46.88547 | 13.56975 | 35177 ft | 505 kts | 137° |
| 2026-04-18 12:00 | 46.83401 | 13.63987 | 35163 ft | 506 kts | 137° |
| 2026-04-18 12:00 | 46.78279 | 13.70946 | 35174 ft | 506 kts | 137° |
| 2026-04-18 12:01 | 46.70527 | 13.81444 | 35171 ft | 507 kts | 137° |
| 2026-04-18 12:02 | 46.65356 | 13.88422 | 35166 ft | 507 kts | 137° |
| 2026-04-18 12:02 | 46.60178 | 13.95390 | 35154 ft | 507 kts | 137° |
| 2026-04-18 12:03 | 46.54988 | 14.02357 | 35161 ft | 508 kts | 137° |
| 2026-04-18 12:03 | 46.49794 | 14.09308 | 35172 ft | 508 kts | 137° |
| 2026-04-18 12:04 | 46.44591 | 14.16252 | 35150 ft | 508 kts | 137° |
| 2026-04-18 12:04 | 46.39387 | 14.23181 | 35146 ft | 509 kts | 136° |
| 2026-04-18 12:05 | 46.34201 | 14.30065 | 35153 ft | 508 kts | 136° |
| 2026-04-18 12:05 | 46.28988 | 14.36968 | 35157 ft | 508 kts | 137° |
| 2026-04-18 12:06 | 46.23763 | 14.43868 | 35152 ft | 508 kts | 137° |
| 2026-04-18 12:06 | 46.18540 | 14.50745 | 35161 ft | 508 kts | 136° |
| 2026-04-18 12:07 | 46.13304 | 14.57623 | 35155 ft | 509 kts | 136° |
| 2026-04-18 12:07 | 46.08066 | 14.64485 | 35156 ft | 509 kts | 136° |
| 2026-04-18 12:08 | 46.02822 | 14.71336 | 35149 ft | 509 kts | 136° |
| 2026-04-18 12:08 | 45.97607 | 14.78131 | 35146 ft | 509 kts | 136° |
| 2026-04-18 12:09 | 45.92352 | 14.84957 | 35154 ft | 509 kts | 136° |
| 2026-04-18 12:09 | 45.87084 | 14.91785 | 35153 ft | 510 kts | 136° |
| 2026-04-18 12:10 | 45.81812 | 14.98601 | 35158 ft | 510 kts | 136° |
| 2026-04-18 12:10 | 45.76532 | 15.05407 | 35157 ft | 511 kts | 136° |
| 2026-04-18 12:11 | 45.71246 | 15.12203 | 35170 ft | 511 kts | 136° |
| 2026-04-18 12:11 | 45.65953 | 15.18992 | 35170 ft | 511 kts | 136° |
| 2026-04-18 12:12 | 45.60653 | 15.25774 | 35159 ft | 512 kts | 136° |
| 2026-04-18 12:12 | 45.55422 | 15.32650 | 35163 ft | 511 kts | 133° |
| 2026-04-18 12:13 | 45.50391 | 15.39798 | 35158 ft | 510 kts | 132° |
| 2026-04-18 12:13 | 45.45386 | 15.46963 | 35161 ft | 510 kts | 132° |
| 2026-04-18 12:14 | 45.40368 | 15.54096 | 35162 ft | 510 kts | 133° |
| 2026-04-18 12:14 | 45.35335 | 15.61199 | 35161 ft | 510 kts | 133° |
| 2026-04-18 12:15 | 45.30327 | 15.68239 | 35167 ft | 510 kts | 132° |
| 2026-04-18 12:15 | 45.25276 | 15.75324 | 35154 ft | 510 kts | 132° |
| 2026-04-18 12:16 | 45.20220 | 15.82399 | 35159 ft | 510 kts | 132° |
| 2026-04-18 12:16 | 45.15158 | 15.89463 | 35155 ft | 511 kts | 132° |
| 2026-04-18 12:17 | 45.10089 | 15.96519 | 35162 ft | 511 kts | 132° |
| 2026-04-18 12:17 | 45.05007 | 16.03575 | 35150 ft | 512 kts | 132° |
| 2026-04-18 12:18 | 44.99917 | 16.10625 | 35146 ft | 512 kts | 132° |
| 2026-04-18 12:18 | 44.94816 | 16.17669 | 35151 ft | 512 kts | 132° |
| 2026-04-18 12:19 | 44.89749 | 16.24647 | 35157 ft | 513 kts | 131° |
| 2026-04-18 12:19 | 44.84639 | 16.31669 | 35148 ft | 513 kts | 131° |
| 2026-04-18 12:20 | 44.79523 | 16.38679 | 35143 ft | 513 kts | 131° |
| 2026-04-18 12:20 | 44.74399 | 16.45680 | 35144 ft | 513 kts | 131° |
| 2026-04-18 12:21 | 44.69272 | 16.52670 | 35149 ft | 513 kts | 131° |
| 2026-04-18 12:21 | 44.64138 | 16.59651 | 35143 ft | 514 kts | 131° |
| 2026-04-18 12:22 | 44.58994 | 16.66627 | 35138 ft | 514 kts | 131° |
| 2026-04-18 12:22 | 44.53841 | 16.73597 | 35132 ft | 515 kts | 131° |
| 2026-04-18 12:23 | 44.48679 | 16.80558 | 35137 ft | 515 kts | 131° |
| 2026-04-18 12:23 | 44.43543 | 16.87473 | 35132 ft | 515 kts | 131° |
| 2026-04-18 12:24 | 44.38380 | 16.94399 | 35111 ft | 515 kts | 131° |
| 2026-04-18 12:24 | 44.33215 | 17.01311 | 35126 ft | 514 kts | 131° |
| 2026-04-18 12:25 | 44.28040 | 17.08224 | 35115 ft | 515 kts | 130° |
| 2026-04-18 12:25 | 44.22858 | 17.15126 | 35113 ft | 515 kts | 131° |
| 2026-04-18 12:26 | 44.17671 | 17.22015 | 35132 ft | 515 kts | 131° |
| 2026-04-18 12:26 | 44.12475 | 17.28900 | 35123 ft | 515 kts | 131° |
| 2026-04-18 12:27 | 44.08159 | 17.34607 | 35123 ft | 516 kts | 130° |
| 2026-04-18 12:27 | 44.02948 | 17.41481 | 35116 ft | 517 kts | 130° |
| 2026-04-18 12:28 | 43.97720 | 17.48355 | 35097 ft | 518 kts | 130° |
| 2026-04-18 12:28 | 43.92485 | 17.55225 | 35087 ft | 518 kts | 130° |
| 2026-04-18 12:29 | 43.87240 | 17.62090 | 35096 ft | 519 kts | 130° |
| 2026-04-18 12:29 | 43.81982 | 17.68955 | 35077 ft | 520 kts | 130° |
| 2026-04-18 12:30 | 43.76715 | 17.75813 | 35082 ft | 520 kts | 130° |
| 2026-04-18 12:30 | 43.71445 | 17.82658 | 35098 ft | 520 kts | 130° |
| 2026-04-18 12:31 | 43.66202 | 17.89453 | 35083 ft | 521 kts | 130° |
| 2026-04-18 12:31 | 43.60902 | 17.96301 | 35063 ft | 522 kts | 130° |
| 2026-04-18 12:32 | 43.55598 | 18.03137 | 35023 ft | 522 kts | 130° |
| 2026-04-18 12:32 | 43.50307 | 18.09942 | 35038 ft | 520 kts | 130° |
| 2026-04-18 12:33 | 43.45008 | 18.16734 | 35042 ft | 521 kts | 131° |
| 2026-04-18 12:33 | 43.39709 | 18.23515 | 35042 ft | 521 kts | 131° |
| 2026-04-18 12:34 | 43.34393 | 18.30301 | 35033 ft | 521 kts | 131° |
| 2026-04-18 12:34 | 43.29084 | 18.37059 | 35035 ft | 520 kts | 131° |
| 2026-04-18 12:35 | 43.23783 | 18.43794 | 35073 ft | 519 kts | 131° |
| 2026-04-18 12:35 | 43.18477 | 18.50516 | 35037 ft | 519 kts | 131° |
| 2026-04-18 12:36 | 43.13174 | 18.57235 | 35029 ft | 519 kts | 130° |
| 2026-04-18 12:36 | 43.08073 | 18.64181 | 35029 ft | 516 kts | 128° |
| 2026-04-18 12:37 | 43.03071 | 18.71225 | 35020 ft | 516 kts | 129° |
| 2026-04-18 12:37 | 42.98047 | 18.78231 | 35039 ft | 516 kts | 129° |
| 2026-04-18 12:38 | 42.92995 | 18.85191 | 35027 ft | 515 kts | 130° |
| 2026-04-18 12:38 | 42.87944 | 18.92107 | 35021 ft | 515 kts | 130° |
| 2026-04-18 12:39 | 42.82918 | 18.98972 | 35004 ft | 515 kts | 130° |
| 2026-04-18 12:39 | 42.77860 | 19.05870 | 35002 ft | 514 kts | 131° |
| 2026-04-18 12:40 | 42.72796 | 19.12760 | 35022 ft | 514 kts | 131° |
| 2026-04-18 12:40 | 42.67731 | 19.19634 | 34999 ft | 514 kts | 131° |
| 2026-04-18 12:41 | 42.62673 | 19.26483 | 34969 ft | 513 kts | 131° |
| 2026-04-18 12:41 | 42.57629 | 19.33295 | 34969 ft | 511 kts | 131° |
| 2026-04-18 12:42 | 42.52589 | 19.40086 | 34976 ft | 509 kts | 132° |
| 2026-04-18 12:42 | 42.47565 | 19.46841 | 34995 ft | 509 kts | 133° |
| 2026-04-18 12:43 | 42.42556 | 19.53558 | 34944 ft | 508 kts | 133° |
| 2026-04-18 12:43 | 42.37537 | 19.60270 | 34974 ft | 507 kts | 133° |
| 2026-04-18 12:44 | 42.32520 | 19.66971 | 34990 ft | 508 kts | 133° |
| 2026-04-18 12:44 | 42.27475 | 19.73688 | 34990 ft | 509 kts | 133° |
| 2026-04-18 12:45 | 42.22423 | 19.80398 | 35003 ft | 510 kts | 133° |
| 2026-04-18 12:45 | 42.17360 | 19.87107 | 34986 ft | 509 kts | 133° |
| 2026-04-18 12:46 | 42.12300 | 19.93795 | 34981 ft | 510 kts | 133° |
| 2026-04-18 12:46 | 42.07233 | 20.00477 | 34981 ft | 510 kts | 133° |
| 2026-04-18 12:47 | 42.02192 | 20.07112 | 34985 ft | 510 kts | 134° |
| 2026-04-18 12:47 | 41.97108 | 20.13787 | 35003 ft | 511 kts | 134° |
| 2026-04-18 12:48 | 41.92009 | 20.20465 | 35000 ft | 512 kts | 134° |
| 2026-04-18 12:48 | 41.86912 | 20.27124 | 34984 ft | 511 kts | 134° |
| 2026-04-18 12:49 | 41.81821 | 20.33761 | 34976 ft | 510 kts | 134° |
| 2026-04-18 12:49 | 41.76729 | 20.40384 | 34980 ft | 510 kts | 134° |
| 2026-04-18 12:50 | 41.71636 | 20.46996 | 34980 ft | 510 kts | 134° |
| 2026-04-18 12:50 | 41.66504 | 20.53563 | 34985 ft | 510 kts | 137° |
| 2026-04-18 12:51 | 41.60969 | 20.59500 | 34983 ft | 510 kts | 141° |
| 2026-04-18 12:51 | 41.55370 | 20.65321 | 34986 ft | 510 kts | 141° |
| 2026-04-18 12:52 | 41.49780 | 20.71166 | 34969 ft | 510 kts | 141° |
| 2026-04-18 12:52 | 41.44200 | 20.77027 | 34984 ft | 511 kts | 141° |
| 2026-04-18 12:53 | 41.38649 | 20.82854 | 34994 ft | 512 kts | 141° |
| 2026-04-18 12:53 | 41.33052 | 20.88713 | 34987 ft | 512 kts | 141° |
| 2026-04-18 12:54 | 41.27444 | 20.94570 | 34980 ft | 512 kts | 141° |
| 2026-04-18 12:54 | 41.21837 | 21.00410 | 34988 ft | 512 kts | 141° |
| 2026-04-18 12:55 | 41.16221 | 21.06246 | 34981 ft | 513 kts | 141° |
| 2026-04-18 12:55 | 41.10602 | 21.12074 | 34986 ft | 513 kts | 141° |
| 2026-04-18 12:56 | 41.05006 | 21.17865 | 34988 ft | 513 kts | 142° |
| 2026-04-18 12:56 | 40.99378 | 21.23676 | 34968 ft | 513 kts | 142° |
| 2026-04-18 12:57 | 40.93750 | 21.29475 | 34969 ft | 513 kts | 142° |
| 2026-04-18 12:57 | 40.88116 | 21.35272 | 34973 ft | 512 kts | 141° |
| 2026-04-18 12:58 | 40.82721 | 21.41421 | 34975 ft | 512 kts | 138° |
| 2026-04-18 12:58 | 40.77417 | 21.47698 | 34971 ft | 512 kts | 138° |
| 2026-04-18 12:59 | 40.72108 | 21.53960 | 34974 ft | 512 kts | 138° |
| 2026-04-18 12:59 | 40.66784 | 21.60195 | 34964 ft | 512 kts | 138° |
| 2026-04-18 13:00 | 40.61454 | 21.66407 | 34972 ft | 511 kts | 138° |
| 2026-04-18 13:00 | 40.56122 | 21.72607 | 34977 ft | 512 kts | 138° |
| 2026-04-18 13:01 | 40.50814 | 21.78766 | 34990 ft | 512 kts | 138° |
| 2026-04-18 13:01 | 40.45462 | 21.84965 | 34988 ft | 513 kts | 139° |
| 2026-04-18 13:02 | 40.40105 | 21.91155 | 34968 ft | 513 kts | 139° |
| 2026-04-18 13:02 | 40.34741 | 21.97341 | 34969 ft | 514 kts | 139° |
| 2026-04-18 13:03 | 40.29370 | 22.03521 | 34982 ft | 514 kts | 139° |
| 2026-04-18 13:03 | 40.21288 | 22.12794 | 34967 ft | 515 kts | 139° |
| 2026-04-18 13:04 | 40.15895 | 22.18964 | 34975 ft | 515 kts | 139° |
| 2026-04-18 13:04 | 40.10507 | 22.25116 | 34985 ft | 514 kts | 139° |
| 2026-04-18 13:05 | 40.05161 | 22.31206 | 34987 ft | 513 kts | 139° |
| 2026-04-18 13:05 | 39.99784 | 22.37318 | 34980 ft | 512 kts | 139° |
| 2026-04-18 13:06 | 39.94410 | 22.43414 | 34969 ft | 512 kts | 140° |
| 2026-04-18 13:06 | 39.89036 | 22.49498 | 34980 ft | 512 kts | 140° |
| 2026-04-18 13:07 | 39.83657 | 22.55573 | 34974 ft | 512 kts | 140° |
| 2026-04-18 13:07 | 39.78265 | 22.61648 | 34966 ft | 512 kts | 140° |
| 2026-04-18 13:08 | 39.72882 | 22.67701 | 34967 ft | 512 kts | 140° |
| 2026-04-18 13:08 | 39.67491 | 22.73752 | 34960 ft | 512 kts | 140° |
| 2026-04-18 13:09 | 39.62091 | 22.79798 | 34975 ft | 512 kts | 141° |
| 2026-04-18 13:09 | 39.56691 | 22.85831 | 34973 ft | 512 kts | 141° |
| 2026-04-18 13:10 | 39.51293 | 22.91849 | 34975 ft | 512 kts | 141° |
| 2026-04-18 13:10 | 39.45880 | 22.97872 | 34977 ft | 513 kts | 141° |
| 2026-04-18 13:11 | 39.40467 | 23.03882 | 34965 ft | 513 kts | 141° |
| 2026-04-18 13:11 | 39.35047 | 23.09886 | 34973 ft | 513 kts | 141° |
| 2026-04-18 13:12 | 39.29621 | 23.15884 | 34975 ft | 513 kts | 142° |
| 2026-04-18 13:12 | 39.24186 | 23.21880 | 34979 ft | 514 kts | 142° |
| 2026-04-18 13:13 | 39.18751 | 23.27863 | 34980 ft | 514 kts | 142° |
| 2026-04-18 13:13 | 39.13317 | 23.33833 | 34965 ft | 513 kts | 142° |
| 2026-04-18 13:14 | 39.07887 | 23.39785 | 34978 ft | 513 kts | 142° |
| 2026-04-18 13:14 | 39.03370 | 23.44728 | 34975 ft | 513 kts | 142° |
| 2026-04-18 13:15 | 38.97053 | 23.51625 | 34971 ft | 512 kts | 142° |
| 2026-04-18 13:15 | 38.91630 | 23.57532 | 34974 ft | 511 kts | 142° |
| 2026-04-18 13:16 | 38.87082 | 23.62478 | 34943 ft | 511 kts | 143° |
| 2026-04-18 13:16 | 38.81665 | 23.68357 | 34967 ft | 509 kts | 143° |
| 2026-04-18 13:17 | 38.76291 | 23.74176 | 34967 ft | 509 kts | 143° |
| 2026-04-18 13:17 | 38.70883 | 23.80022 | 34964 ft | 507 kts | 143° |
| 2026-04-18 13:18 | 38.65490 | 23.85836 | 34960 ft | 506 kts | 143° |
| 2026-04-18 13:18 | 38.60106 | 23.91632 | 34944 ft | 505 kts | 143° |
| 2026-04-18 13:19 | 38.54720 | 23.97418 | 34950 ft | 505 kts | 143° |
| 2026-04-18 13:19 | 38.49369 | 24.03155 | 34958 ft | 505 kts | 143° |
| 2026-04-18 13:20 | 38.43986 | 24.08913 | 34953 ft | 506 kts | 143° |
| 2026-04-18 13:20 | 38.38581 | 24.14684 | 34963 ft | 506 kts | 143° |
| 2026-04-18 13:21 | 38.33181 | 24.20438 | 34949 ft | 507 kts | 143° |
| 2026-04-18 13:21 | 38.27766 | 24.26196 | 34943 ft | 506 kts | 143° |
| 2026-04-18 13:22 | 38.22356 | 24.31938 | 34948 ft | 507 kts | 143° |
| 2026-04-18 13:22 | 38.16936 | 24.37678 | 34944 ft | 507 kts | 144° |
| 2026-04-18 13:23 | 38.11511 | 24.43412 | 34936 ft | 507 kts | 143° |
| 2026-04-18 13:23 | 38.06117 | 24.49103 | 34933 ft | 507 kts | 143° |
| 2026-04-18 13:24 | 38.00694 | 24.54814 | 34929 ft | 506 kts | 144° |
| 2026-04-18 13:24 | 37.95271 | 24.60512 | 34919 ft | 506 kts | 143° |
| 2026-04-18 13:25 | 37.89850 | 24.66196 | 34912 ft | 506 kts | 144° |